Flight Track Log - Related Links

Times and Time Zones

All times are in EDT time to prevent confusion due to time zone crossing. See the AWI3847 flight status page for this flight to view local times or setup timezone preferences in your user account.

Time Position Orientation Groundspeed Altitude Reporting Facility
EDT Latitude Longitude Course Direction KTS MPH feet Rate Location/Type
Thu 06:56:33 PM 39.8667 -75.2833 270° West 157 181 1,000  Level Philadelphia TRACON
Thu 06:57:21 PM 39.8333 -75.3167 218° Southwest 186 214 2,700 2,444 Climbing Philadelphia TRACON
Thu 06:58:21 PM 39.8000 -75.3667 229° Southwest 232 267 5,400 2,900 Climbing Philadelphia TRACON
Thu 06:59:21 PM 39.7667 -75.4500 243° Southwest 271 312 8,500 2,190 Climbing Philadelphia TRACON
Thu 07:00:00 PM 39.6536 -75.7567 264° West  Level FlightAware Approximate
Thu 07:00:27 PM 39.7167 -75.5500 237° Southwest 312 359 10,000  Level Philadelphia TRACON
Thu 07:01:00 PM 39.6333 -75.9074 270° West  Level FlightAware Approximate
Thu 07:01:21 PM 39.6833 -75.6333 243° Southwest 301 346 10,000  Level Philadelphia TRACON
Thu 07:02:27 PM 39.6667 -75.7500 260° West 289 333 10,000  Level Philadelphia TRACON
Thu 07:04:34 PM 39.6333 -75.9500 258° West 274 315 10,000  Level Potomac TRACON
Thu 07:05:40 PM 39.6333 -76.0667 270° West 268 308 10,000 -331 Level Potomac TRACON
Thu 07:06:41 PM 39.6333 -76.1500 270° West 258 297 9,300 -1,140 Descending Potomac TRACON
Thu 07:07:41 PM 39.6000 -76.2500 247° West 271 312 7,700 -1,550 Descending Potomac TRACON
Thu 07:08:41 PM 39.5667 -76.3167 237° Southwest 263 303 6,200 -1,286 Descending Potomac TRACON
Thu 07:09:47 PM 39.5000 -76.3833 218° Southwest 264 304 5,000 -750 Descending Potomac TRACON
Thu 07:10:41 PM 39.4333 -76.4000 191° South 260 299 4,700 -842 Descending Potomac TRACON
Thu 07:11:41 PM 39.3667 -76.4167 191° South 259 298 3,400 -850 Descending Potomac TRACON
Thu 07:12:41 PM 39.3000 -76.4667 210° Southwest 244 281 3,000 -298 Descending Potomac TRACON
Thu 07:13:42 PM 39.2333 -76.5000 201° Southwest 256 295 2,800 -472 Descending Potomac TRACON
Thu 07:14:48 PM 39.1667 -76.5167 191° South 229 264 2,000 -381 Descending Potomac TRACON
Thu 07:15:48 PM 39.1167 -76.5167 180° South 178 205 2,000  Level Potomac TRACON

Login

Don't have an account? Register now (free) for customized features, flight alerts, and more!